This is the latest recevied weather packets stored in our database for station/object LKCS. If no packets are shown the sender has not sent any weather packets the latest 10 day(s).
| Time | Temp. | Humidity | Pressure | Rain* | Wind** | Luminosity | Snow |
|---|---|---|---|---|---|---|---|
| 1788681778 | 16.11° C | 63% | 1028 hPa | - | - | - | - |
| 1788679965 | 15° C | 67% | 1028 hPa | - | - | - | - |
| 1788678203 | 15° C | 67% | 1027 hPa | - | - | - | - |
| 1788676359 | 13.89° C | 71% | 1027 hPa | - | - | - | - |
| 1788674585 | 12.78° C | 76% | 1027 hPa | - | - | - | - |
| 1788672790 | 11.11° C | 81% | 1027 hPa | - | - | - | - |
| 1788670987 | 8.89° C | 87% | 1026 hPa | - | - | - | - |
| 1788669158 | 8.89° C | 87% | 1026 hPa | - | - | - | - |
| 1788667365 | 10° C | 87% | 1026 hPa | - | - | - | - |
| 1788665584 | 11.11° C | 81% | 1026 hPa | - | - | - | - |
| 1788663761 | 10° C | 87% | 1026 hPa | - | - | - | - |
| 1788661951 | 11.11° C | 76% | 1026 hPa | - | - | - | - |
| 1788660186 | 11.11° C | 81% | 1026 hPa | - | - | - | - |
| 1788658384 | 12.78° C | 66% | 1025 hPa | - | - | - | - |
| 1788656565 | 12.78° C | 66% | 1025 hPa | - | - | - | - |
| 1788654751 | 12.78° C | 66% | 1025 hPa | - | - | - | - |
| 1788652963 | 13.89° C | 62% | 1025 hPa | - | - | - | - |
| 1788651185 | 15° C | 62% | 1025 hPa | - | - | - | - |
| 1788649387 | 16.11° C | 59% | 1025 hPa | - | - | - | - |
| 1788647551 | 17.22° C | 55% | 1025 hPa | - | - | - | - |
| 1788645772 | 17.22° C | 55% | 1025 hPa | - | - | - | - |
| 1788643985 | 17.78° C | 52% | 1024 hPa | - | - | - | - |
| 1788642171 | 17.78° C | 52% | 1024 hPa | - | - | - | - |
| 1788642080 | 18.89° C | 52% | 1024 hPa | - | - | - | - |
| 1788641519 | 18.89° C | 52% | 1024 hPa | - | - | - | - |
* Rain since midnight (hover to see other rain measurements)
** Current wind speed in m/s (hover to see current wind gust speed)